createdAt,value
2023-02-26T00:01:17.630Z,10.08
2023-02-26T00:03:55.431Z,9.81
2023-02-26T00:06:24.847Z,9.76
2023-02-26T00:08:53.395Z,9.82
2023-02-26T00:11:22.616Z,9.73
2023-02-26T00:13:51.153Z,9.92
2023-02-26T00:16:27.725Z,9.97
2023-02-26T00:18:57.061Z,10.05
2023-02-26T00:21:25.805Z,10.04
2023-02-26T00:23:53.530Z,10.06
2023-02-26T00:26:23.224Z,9.96
2023-02-26T00:28:51.495Z,9.95
2023-02-26T00:31:32.039Z,10.00
2023-02-26T00:34:02.041Z,10.06
2023-02-26T00:36:55.264Z,10.15
2023-02-26T00:39:32.164Z,9.85
2023-02-26T00:42:11.147Z,9.83
2023-02-26T00:44:40.121Z,9.83
2023-02-26T00:47:25.849Z,9.71
2023-02-26T00:50:06.879Z,9.72
2023-02-26T00:53:12.197Z,9.75
2023-02-26T00:55:40.492Z,9.69
2023-02-26T00:58:08.165Z,9.79
2023-02-26T01:00:35.969Z,9.81
2023-02-26T01:03:04.039Z,9.83
2023-02-26T01:05:31.939Z,9.95
2023-02-26T01:08:15.216Z,10.01
2023-02-26T01:10:43.585Z,10.10
2023-02-26T01:13:13.673Z,10.00
2023-02-26T01:15:47.799Z,10.12
2023-02-26T01:18:45.042Z,10.14
2023-02-26T01:21:19.281Z,10.13
2023-02-26T01:23:51.454Z,10.28
2023-02-26T01:26:24.418Z,10.16
2023-02-26T01:28:57.031Z,10.13
2023-02-26T01:31:47.823Z,10.13
2023-02-26T01:34:45.199Z,10.17
2023-02-26T01:37:56.478Z,9.94
2023-02-26T01:40:53.954Z,9.74
2023-02-26T01:43:32.481Z,9.60
2023-02-26T01:46:05.516Z,9.68
2023-02-26T01:48:42.408Z,9.76
2023-02-26T01:51:10.222Z,9.73
2023-02-26T01:53:40.280Z,9.77
2023-02-26T01:56:19.338Z,9.85
2023-02-26T01:58:49.725Z,9.95
2023-02-26T02:01:17.223Z,10.06
2023-02-26T02:03:46.247Z,10.10
2023-02-26T02:06:21.763Z,10.24
2023-02-26T02:08:49.490Z,10.32
2023-02-26T02:11:19.852Z,10.43
2023-02-26T02:14:18.837Z,10.47
2023-02-26T02:17:12.656Z,10.41
2023-02-26T02:20:00.902Z,10.58
2023-02-26T02:22:46.107Z,10.64
2023-02-26T02:25:42.052Z,10.65
2023-02-26T02:28:53.744Z,10.66
2023-02-26T02:31:28.389Z,9.67
2023-02-26T02:34:03.271Z,9.07
2023-02-26T02:36:48.790Z,8.78
2023-02-26T02:39:28.145Z,8.56
2023-02-26T02:42:03.180Z,8.53
2023-02-26T02:44:35.367Z,8.23
2023-02-26T02:47:06.397Z,8.18
2023-02-26T02:49:50.368Z,8.00
2023-02-26T02:52:27.125Z,7.82
2023-02-26T02:55:01.971Z,7.89
2023-02-26T02:57:37.731Z,7.74
2023-02-26T03:00:10.809Z,7.79
2023-02-26T03:02:56.418Z,7.45
2023-02-26T03:05:24.149Z,7.35
2023-02-26T03:08:06.537Z,7.47
2023-02-26T03:10:37.149Z,7.43
2023-02-26T03:13:05.191Z,7.59
2023-02-26T03:15:44.176Z,7.39
2023-02-26T03:18:27.224Z,7.24
2023-02-26T03:21:17.353Z,7.20
2023-02-26T03:23:49.852Z,7.21
2023-02-26T03:26:33.654Z,7.16
2023-02-26T03:29:38.672Z,6.97
2023-02-26T03:32:28.286Z,7.10
2023-02-26T03:35:12.309Z,7.03
2023-02-26T03:37:52.107Z,7.03
2023-02-26T03:40:37.717Z,7.08
2023-02-26T03:43:22.043Z,7.06
2023-02-26T03:45:54.124Z,6.92
2023-02-26T03:48:27.211Z,6.87
2023-02-26T03:51:01.465Z,6.96
2023-02-26T03:53:57.558Z,6.88
2023-02-26T03:56:35.385Z,6.93
2023-02-26T03:59:33.252Z,6.88
2023-02-26T04:02:19.292Z,6.83
2023-02-26T04:05:03.194Z,6.76
2023-02-26T04:07:32.236Z,6.82
2023-02-26T04:09:59.887Z,6.72
2023-02-26T04:12:30.821Z,6.72
2023-02-26T04:14:58.919Z,6.68
2023-02-26T04:17:26.974Z,6.55
2023-02-26T04:19:54.979Z,6.58
2023-02-26T04:22:22.615Z,6.67
2023-02-26T04:24:50.353Z,6.53
2023-02-26T04:27:19.012Z,6.60
2023-02-26T04:29:46.747Z,6.58
2023-02-26T04:32:14.308Z,6.67
2023-02-26T04:34:42.196Z,6.40
2023-02-26T04:37:11.217Z,6.48
2023-02-26T04:39:38.933Z,6.48
2023-02-26T04:42:06.675Z,6.42
2023-02-26T04:44:34.334Z,6.54
2023-02-26T04:47:02.974Z,6.41
2023-02-26T04:49:32.130Z,6.52
2023-02-26T04:51:59.734Z,6.47
2023-02-26T04:54:27.565Z,6.51
2023-02-26T04:56:57.184Z,6.53
2023-02-26T04:59:24.973Z,6.42
2023-02-26T05:01:52.739Z,6.34
2023-02-26T05:04:24.310Z,6.32
2023-02-26T05:06:56.017Z,6.35
2023-02-26T05:09:23.787Z,6.32
2023-02-26T05:11:51.442Z,6.25
2023-02-26T05:14:19.006Z,6.38
2023-02-26T05:16:49.464Z,6.25
2023-02-26T05:19:17.238Z,6.15
2023-02-26T05:21:49.376Z,5.91
2023-02-26T05:34:45.246Z,6.07
2023-02-26T05:37:38.935Z,6.10
2023-02-26T05:46:38.544Z,5.82
2023-02-26T05:52:17.433Z,5.86
2023-02-26T05:54:50.391Z,5.82
2023-02-26T05:57:18.521Z,5.81
2023-02-26T06:03:04.816Z,5.82
2023-02-26T06:05:49.437Z,5.64
2023-02-26T06:08:20.096Z,5.83
2023-02-26T06:10:59.577Z,5.71
2023-02-26T06:13:35.756Z,5.63
2023-02-26T06:16:18.887Z,5.68
2023-02-26T06:22:58.714Z,5.74
2023-02-26T06:25:26.716Z,5.76
2023-02-26T06:27:59.491Z,5.74
2023-02-26T06:30:57.970Z,5.72
2023-02-26T06:33:43.225Z,5.71
2023-02-26T06:39:58.827Z,5.69
2023-02-26T06:46:08.784Z,5.60
2023-02-26T06:48:51.104Z,5.59
2023-02-26T06:51:46.277Z,5.61
2023-02-26T06:54:36.769Z,5.60
2023-02-26T07:01:17.312Z,5.62
2023-02-26T07:03:45.179Z,5.71
2023-02-26T07:06:38.608Z,5.59
2023-02-26T07:09:05.554Z,5.51
2023-02-26T07:11:33.361Z,5.54
2023-02-26T07:14:01.934Z,5.59
2023-02-26T07:16:30.258Z,5.66
2023-02-26T07:19:04.813Z,5.55
2023-02-26T07:21:35.246Z,5.60
2023-02-26T07:24:06.010Z,5.64
2023-02-26T07:26:36.498Z,5.64
2023-02-26T07:29:07.034Z,5.56
2023-02-26T07:31:38.444Z,5.46
2023-02-26T07:34:06.093Z,5.63
2023-02-26T07:36:33.834Z,5.44
2023-02-26T07:39:01.409Z,5.59
2023-02-26T07:41:33.359Z,5.42
2023-02-26T07:44:04.556Z,5.67
2023-02-26T07:46:32.854Z,5.65
2023-02-26T07:49:00.608Z,5.73
2023-02-26T07:51:28.394Z,5.82
2023-02-26T07:53:56.071Z,5.83
2023-02-26T07:56:23.814Z,5.83
2023-02-26T07:58:53.357Z,5.86
2023-02-26T08:01:20.919Z,6.04
2023-02-26T08:03:49.881Z,6.13
2023-02-26T08:06:18.545Z,6.03
2023-02-26T08:08:47.069Z,6.06
2023-02-26T08:11:14.889Z,6.10
2023-02-26T08:13:42.844Z,6.20
2023-02-26T08:16:17.161Z,6.29
2023-02-26T08:18:55.388Z,6.33
2023-02-26T08:21:42.160Z,6.41
2023-02-26T08:24:25.684Z,6.39
2023-02-26T08:27:00.718Z,6.55
2023-02-26T08:29:28.358Z,6.47
2023-02-26T08:31:57.196Z,6.54
2023-02-26T08:34:25.292Z,6.56
2023-02-26T08:36:52.863Z,6.51
2023-02-26T08:39:20.655Z,6.59
2023-02-26T08:41:48.230Z,6.55
2023-02-26T08:44:21.112Z,6.74
2023-02-26T08:46:48.618Z,6.95
2023-02-26T08:49:21.191Z,6.85
2023-02-26T08:51:51.949Z,6.91
2023-02-26T08:54:21.411Z,6.98
2023-02-26T08:56:49.316Z,6.82
2023-02-26T08:59:17.270Z,7.06
2023-02-26T09:01:44.919Z,7.12
2023-02-26T09:04:12.665Z,7.21
2023-02-26T09:06:40.420Z,7.07
2023-02-26T09:09:08.680Z,7.20
2023-02-26T09:11:36.972Z,7.15
2023-02-26T09:14:05.674Z,7.20
2023-02-26T09:16:37.156Z,7.18
2023-02-26T09:19:06.324Z,7.26
2023-02-26T09:21:34.164Z,7.15
2023-02-26T09:24:04.682Z,7.31
2023-02-26T09:26:32.315Z,7.49
2023-02-26T09:28:59.903Z,7.35
2023-02-26T09:31:28.701Z,7.47
2023-02-26T09:33:56.411Z,7.47
2023-02-26T09:36:26.551Z,7.59
2023-02-26T09:38:54.844Z,7.51
2023-02-26T09:41:28.600Z,7.83
2023-02-26T09:44:23.520Z,7.79
2023-02-26T09:47:06.217Z,7.78
2023-02-26T09:49:39.530Z,7.78
2023-02-26T09:52:36.646Z,7.76
2023-02-26T09:55:15.836Z,7.83
2023-02-26T09:57:46.896Z,7.79
2023-02-26T10:00:24.898Z,7.97
2023-02-26T10:03:07.074Z,8.10
2023-02-26T10:05:52.394Z,8.13
2023-02-26T10:12:26.441Z,8.37
2023-02-26T10:15:46.376Z,8.50
2023-02-26T10:19:19.686Z,8.27
2023-02-26T10:22:24.099Z,8.61
2023-02-26T10:29:23.480Z,8.73
2023-02-26T10:32:26.391Z,8.52
2023-02-26T10:35:02.072Z,8.49
2023-02-26T10:37:50.121Z,8.07
2023-02-26T10:41:00.050Z,8.20
2023-02-26T10:43:41.026Z,8.37
2023-02-26T10:46:43.014Z,8.40
2023-02-26T10:49:26.684Z,8.37
2023-02-26T10:52:21.163Z,8.47
2023-02-26T11:02:49.170Z,8.27
2023-02-26T11:05:52.877Z,8.35
2023-02-26T11:08:49.977Z,8.43
2023-02-26T11:21:44.869Z,8.51
2023-02-26T11:24:35.421Z,8.86
2023-02-26T11:27:13.027Z,9.01
2023-02-26T11:29:41.872Z,8.80
2023-02-26T11:32:36.879Z,8.76
2023-02-26T11:35:08.188Z,8.62
2023-02-26T11:37:39.507Z,8.62
2023-02-26T11:40:18.369Z,8.54
2023-02-26T11:42:53.467Z,8.53
2023-02-26T11:45:21.559Z,8.29
2023-02-26T11:47:59.555Z,8.43
2023-02-26T11:50:34.620Z,8.42
2023-02-26T11:53:10.781Z,8.43
2023-02-26T11:55:44.931Z,8.59
2023-02-26T11:58:37.982Z,8.36
2023-02-26T12:01:11.068Z,8.51
2023-02-26T12:03:41.273Z,8.59
2023-02-26T12:06:19.216Z,8.56
2023-02-26T12:08:47.835Z,8.44
2023-02-26T12:11:44.390Z,8.57
2023-02-26T12:14:33.000Z,8.58
2023-02-26T12:17:36.632Z,8.52
2023-02-26T12:20:40.778Z,8.46
2023-02-26T12:23:31.314Z,8.55
2023-02-26T12:26:14.063Z,8.45
2023-02-26T12:29:17.017Z,8.33
2023-02-26T12:32:04.926Z,8.53
2023-02-26T12:34:38.662Z,8.72
2023-02-26T12:37:31.313Z,8.60
2023-02-26T12:40:27.708Z,8.63
2023-02-26T12:43:25.126Z,8.28
2023-02-26T12:46:25.240Z,8.48
2023-02-26T12:49:25.920Z,8.48
2023-02-26T12:51:54.695Z,8.22
2023-02-26T12:54:55.299Z,8.42
2023-02-26T12:57:49.877Z,8.04
2023-02-26T13:00:25.052Z,7.84
2023-02-26T13:03:20.841Z,7.98
2023-02-26T13:06:44.300Z,7.95
2023-02-26T13:09:42.031Z,7.92
2023-02-26T13:12:38.976Z,8.21
2023-02-26T13:15:38.393Z,8.11
2023-02-26T13:18:30.589Z,8.31
2023-02-26T13:21:06.033Z,8.18
2023-02-26T13:23:47.028Z,8.34
2023-02-26T13:26:18.307Z,8.22
2023-02-26T13:29:19.711Z,8.00
2023-02-26T13:32:03.103Z,8.20
2023-02-26T13:34:50.350Z,8.02
2023-02-26T13:37:33.493Z,8.10
2023-02-26T13:40:14.073Z,8.15
2023-02-26T13:42:57.904Z,8.01
2023-02-26T13:46:13.816Z,8.06
2023-02-26T13:49:19.653Z,8.01
2023-02-26T13:51:50.051Z,8.01
2023-02-26T13:54:20.677Z,8.09
2023-02-26T13:57:07.183Z,8.03
2023-02-26T14:00:13.374Z,7.86
2023-02-26T14:02:57.799Z,7.97
2023-02-26T14:05:53.874Z,7.72
2023-02-26T14:08:47.692Z,8.02
2023-02-26T14:11:19.207Z,7.80
2023-02-26T14:14:10.925Z,7.89
2023-02-26T14:16:42.622Z,7.80
2023-02-26T14:19:13.475Z,7.89
2023-02-26T14:21:59.133Z,7.83
2023-02-26T14:24:39.034Z,8.05
2023-02-26T14:27:12.888Z,8.01
2023-02-26T14:29:58.691Z,8.11
2023-02-26T14:32:30.167Z,8.19
2023-02-26T14:35:10.564Z,7.99
2023-02-26T14:37:42.020Z,8.03
2023-02-26T14:40:26.053Z,7.77
2023-02-26T14:43:04.537Z,8.03
2023-02-26T14:45:37.513Z,8.01
2023-02-26T14:48:14.376Z,8.03
2023-02-26T14:51:26.546Z,7.83
2023-02-26T14:54:09.642Z,7.77
2023-02-26T14:57:21.128Z,7.64
2023-02-26T15:00:19.687Z,7.21
2023-02-26T15:02:56.242Z,7.42
2023-02-26T15:05:35.563Z,7.78
2023-02-26T15:08:23.141Z,7.39
2023-02-26T15:11:26.745Z,7.79
2023-02-26T15:14:41.262Z,7.26
2023-02-26T15:17:46.366Z,7.52
2023-02-26T15:20:52.418Z,7.46
2023-02-26T15:23:57.135Z,7.50
2023-02-26T15:26:32.384Z,7.55
2023-02-26T15:29:04.672Z,7.55
2023-02-26T15:31:37.286Z,7.60
2023-02-26T15:34:12.973Z,7.58
2023-02-26T15:36:45.987Z,7.43
2023-02-26T15:39:17.934Z,7.48
2023-02-26T15:41:50.669Z,7.63
2023-02-26T15:44:26.232Z,7.58
2023-02-26T15:47:04.585Z,7.65
2023-02-26T15:49:41.424Z,7.73
2023-02-26T15:52:13.766Z,7.71
2023-02-26T15:54:53.933Z,7.45
2023-02-26T15:57:24.598Z,7.56
2023-02-26T16:00:00.436Z,7.58
2023-02-26T16:02:32.158Z,7.59
2023-02-26T16:05:01.357Z,7.56
2023-02-26T16:07:29.115Z,7.72
2023-02-26T16:09:57.556Z,7.68
2023-02-26T16:12:38.819Z,7.60
2023-02-26T16:15:15.794Z,7.72
2023-02-26T16:17:46.715Z,7.52
2023-02-26T16:20:22.985Z,7.61
2023-02-26T16:22:56.710Z,7.22
2023-02-26T16:25:35.714Z,7.39
2023-02-26T16:28:07.158Z,6.96
2023-02-26T16:30:38.040Z,6.93
2023-02-26T16:33:19.287Z,7.03
2023-02-26T16:36:05.074Z,7.12
2023-02-26T16:38:46.661Z,6.76
2023-02-26T16:41:17.160Z,6.84
2023-02-26T16:43:47.867Z,6.79
2023-02-26T16:46:46.618Z,6.73
2023-02-26T16:49:42.187Z,7.15
2023-02-26T16:52:30.626Z,6.77
2023-02-26T16:55:11.550Z,6.68
2023-02-26T16:57:58.801Z,6.92
2023-02-26T17:00:51.198Z,6.98
2023-02-26T17:03:31.710Z,6.87
2023-02-26T17:06:05.874Z,6.67
2023-02-26T17:08:49.442Z,6.78
2023-02-26T17:11:39.272Z,6.62
2023-02-26T17:14:32.256Z,6.61
2023-02-26T17:17:04.434Z,6.73
2023-02-26T17:19:32.469Z,6.59
2023-02-26T17:22:00.681Z,6.75
2023-02-26T17:24:37.353Z,6.73
2023-02-26T17:27:06.046Z,6.70
2023-02-26T17:29:41.000Z,6.77
2023-02-26T17:32:19.064Z,6.77
2023-02-26T17:34:47.286Z,6.89
2023-02-26T17:37:15.900Z,6.74
2023-02-26T17:39:44.803Z,6.76
2023-02-26T17:42:21.956Z,6.78
2023-02-26T17:45:00.849Z,6.61
2023-02-26T17:47:28.976Z,6.63
2023-02-26T17:50:00.269Z,6.77
2023-02-26T17:52:31.590Z,6.70
2023-02-26T17:54:59.393Z,6.69
2023-02-26T17:57:30.431Z,6.69
2023-02-26T17:59:58.527Z,6.75
2023-02-26T18:02:27.256Z,6.80
2023-02-26T18:04:55.119Z,6.75
2023-02-26T18:07:24.209Z,6.87
2023-02-26T18:09:51.929Z,6.75
2023-02-26T18:12:22.477Z,6.77
2023-02-26T18:14:52.543Z,6.71
2023-02-26T18:17:28.795Z,6.75
2023-02-26T18:19:56.769Z,6.78
2023-02-26T18:22:27.902Z,6.73
2023-02-26T18:24:56.661Z,6.66
2023-02-26T18:27:26.198Z,6.80
2023-02-26T18:29:54.482Z,6.82
2023-02-26T18:32:26.037Z,6.81
2023-02-26T18:34:54.606Z,6.66
2023-02-26T18:37:27.509Z,6.61
2023-02-26T18:39:56.339Z,6.65
2023-02-26T18:42:27.779Z,6.62
2023-02-26T18:44:56.235Z,6.61
2023-02-26T18:47:24.071Z,6.81
2023-02-26T18:52:33.758Z,6.51
2023-02-26T18:55:03.119Z,6.77
2023-02-26T18:57:30.855Z,6.77
2023-02-26T18:59:58.780Z,6.59
2023-02-26T19:02:26.720Z,6.55
2023-02-26T19:04:56.469Z,6.67
2023-02-26T19:07:24.333Z,6.28
2023-02-26T19:09:56.999Z,6.12
2023-02-26T19:12:26.524Z,6.03
2023-02-26T19:15:04.999Z,6.03
2023-02-26T19:17:36.116Z,6.02
2023-02-26T19:20:04.134Z,6.09
2023-02-26T19:22:33.092Z,5.95
2023-02-26T19:25:00.707Z,5.98
2023-02-26T19:27:29.470Z,5.98
2023-02-26T19:29:56.925Z,6.05
2023-02-26T19:32:27.297Z,5.99
2023-02-26T19:34:54.938Z,6.08
2023-02-26T19:37:25.717Z,5.98
2023-02-26T19:39:56.017Z,5.93
2023-02-26T19:42:24.698Z,6.00
2023-02-26T19:44:53.760Z,5.85
2023-02-26T19:47:21.374Z,5.97
2023-02-26T19:49:49.133Z,5.95
2023-02-26T19:52:16.859Z,5.97
2023-02-26T19:55:34.486Z,5.97
2023-02-26T19:58:29.033Z,5.95
2023-02-26T20:01:03.154Z,5.72
2023-02-26T20:03:36.116Z,5.92
2023-02-26T20:06:04.039Z,5.92
2023-02-26T20:08:32.412Z,5.86
2023-02-26T20:11:00.174Z,5.86
2023-02-26T20:13:30.813Z,5.98
2023-02-26T20:15:59.180Z,5.88
2023-02-26T20:18:28.799Z,5.86
2023-02-26T20:20:58.196Z,5.75
2023-02-26T20:23:28.563Z,5.83
2023-02-26T20:25:59.180Z,5.88
2023-02-26T20:28:29.285Z,5.74
2023-02-26T20:30:56.898Z,5.58
2023-02-26T20:33:25.720Z,5.81
2023-02-26T20:35:57.816Z,5.89
2023-02-26T20:38:28.586Z,5.67
2023-02-26T20:40:58.290Z,5.82
2023-02-26T20:43:26.372Z,5.69
2023-02-26T20:45:55.343Z,5.73
2023-02-26T20:48:23.849Z,5.79
2023-02-26T20:50:53.800Z,5.68
2023-02-26T20:53:22.205Z,5.73
2023-02-26T20:55:53.129Z,5.73
2023-02-26T20:58:23.971Z,5.76
2023-02-26T21:00:58.018Z,5.78
2023-02-26T21:03:26.117Z,5.84
2023-02-26T21:05:53.953Z,5.79
2023-02-26T21:08:22.151Z,5.79
2023-02-26T21:10:51.649Z,5.81
2023-02-26T21:13:19.395Z,5.84
2023-02-26T21:15:48.823Z,5.93
2023-02-26T21:18:16.343Z,5.90
2023-02-26T21:20:43.878Z,5.81
2023-02-26T21:23:11.397Z,5.80
2023-02-26T21:25:42.402Z,5.78
2023-02-26T21:28:37.504Z,5.92
2023-02-26T21:31:17.212Z,5.99
2023-02-26T21:33:45.572Z,5.92
2023-02-26T21:36:17.104Z,5.80
2023-02-26T21:38:45.018Z,5.80
2023-02-26T21:41:14.884Z,5.88
2023-02-26T21:43:47.078Z,5.87
2023-02-26T21:46:37.068Z,5.98
2023-02-26T22:10:28.404Z,5.82
2023-02-26T22:19:27.785Z,5.91
2023-02-26T22:22:27.081Z,5.93
2023-02-26T22:25:57.114Z,5.98
2023-02-26T22:29:09.099Z,5.79
2023-02-26T22:31:59.518Z,5.72
2023-02-26T22:34:57.865Z,5.91
2023-02-26T22:37:46.906Z,5.74
2023-02-26T22:40:19.402Z,5.86
2023-02-26T22:46:13.980Z,5.87
2023-02-26T22:48:50.613Z,5.87
2023-02-26T22:51:23.188Z,5.85
2023-02-26T22:54:01.527Z,5.90
2023-02-26T22:56:36.293Z,5.91
2023-02-26T22:59:10.563Z,5.85
2023-02-26T23:01:42.192Z,5.84
2023-02-26T23:40:47.516Z,5.90
